createdAt,value
2019-02-23T00:00:15.198Z,30.23
2019-02-23T00:00:50.297Z,28.90
2019-02-23T00:01:21.628Z,32.60
2019-02-23T00:01:53.075Z,32.70
2019-02-23T00:02:24.368Z,32.97
2019-02-23T00:02:55.703Z,32.23
2019-02-23T00:03:27.034Z,29.73
2019-02-23T00:03:58.353Z,28.70
2019-02-23T00:04:30.656Z,29.83
2019-02-23T00:05:01.918Z,29.70
2019-02-23T00:05:33.417Z,30.13
2019-02-23T00:06:04.703Z,30.27
2019-02-23T00:06:35.972Z,33.43
2019-02-23T00:07:07.282Z,32.23
2019-02-23T00:07:38.615Z,32.93
2019-02-23T00:08:10.045Z,31.70
2019-02-23T00:08:41.352Z,29.97
2019-02-23T00:09:12.755Z,29.37
2019-02-23T00:09:44.297Z,30.93
2019-02-23T00:10:17.680Z,32.17
2019-02-23T00:10:49.199Z,32.77
2019-02-23T00:11:24.309Z,30.77
2019-02-23T00:11:55.723Z,32.87
2019-02-23T00:12:27.115Z,33.67
2019-02-23T00:12:58.523Z,34.10
2019-02-23T00:13:29.956Z,38.63
2019-02-23T00:14:01.409Z,37.10
2019-02-23T00:14:33.990Z,38.50
2019-02-23T00:15:05.993Z,41.67
2019-02-23T00:15:37.355Z,42.27
2019-02-23T00:16:08.940Z,43.83
2019-02-23T00:16:40.374Z,43.07
2019-02-23T00:17:11.816Z,42.30
2019-02-23T00:17:43.634Z,43.37
2019-02-23T00:18:15.212Z,44.43
2019-02-23T00:18:46.812Z,39.10
2019-02-23T00:19:24.911Z,39.40
2019-02-23T00:19:51.749Z,41.03
2019-02-23T00:20:23.163Z,40.73
2019-02-23T00:20:54.735Z,39.93
2019-02-23T00:21:26.168Z,43.30
2019-02-23T00:21:57.639Z,44.87
2019-02-23T00:22:29.061Z,50.27
2019-02-23T00:23:00.531Z,53.00
2019-02-23T00:23:31.820Z,49.43
2019-02-23T00:24:03.429Z,50.90
2019-02-23T00:24:34.891Z,51.13
2019-02-23T00:25:06.598Z,48.97
2019-02-23T00:25:37.993Z,50.23
2019-02-23T00:26:09.628Z,49.73
2019-02-23T00:26:40.892Z,47.10
2019-02-23T00:27:12.320Z,49.77
2019-02-23T00:27:43.839Z,48.37
2019-02-23T00:28:15.439Z,44.50
2019-02-23T00:28:46.956Z,42.83
2019-02-23T00:29:18.598Z,40.27
2019-02-23T00:29:50.064Z,38.60
2019-02-23T00:30:21.399Z,36.80
2019-02-23T00:30:52.828Z,38.00
2019-02-23T00:31:24.347Z,34.10
2019-02-23T00:31:55.669Z,34.10
2019-02-23T00:32:27.144Z,35.13
2019-02-23T00:32:58.577Z,32.43
2019-02-23T00:33:30.005Z,31.87
2019-02-23T00:34:01.503Z,35.13
2019-02-23T00:34:32.909Z,41.03
2019-02-23T00:35:04.423Z,41.30
2019-02-23T00:35:35.872Z,41.13
2019-02-23T00:36:07.377Z,42.90
2019-02-23T00:36:39.081Z,47.33
2019-02-23T00:37:10.537Z,51.87
2019-02-23T00:37:42.162Z,50.10
2019-02-23T00:38:13.845Z,51.73
2019-02-23T00:38:45.343Z,52.00
2019-02-23T00:39:16.681Z,51.23
2019-02-23T00:39:48.139Z,52.07
2019-02-23T00:40:19.498Z,49.50
2019-02-23T00:40:50.941Z,50.90
2019-02-23T00:41:22.285Z,50.13
2019-02-23T00:41:53.661Z,52.87
2019-02-23T00:42:25.022Z,50.97
2019-02-23T00:42:56.371Z,52.57
2019-02-23T00:43:27.701Z,51.80
2019-02-23T00:43:59.022Z,53.60
2019-02-23T00:44:30.419Z,52.70
2019-02-23T00:45:01.854Z,54.27
2019-02-23T00:45:34.326Z,54.53
2019-02-23T00:46:05.703Z,53.77
2019-02-23T00:46:37.132Z,55.27
2019-02-23T00:47:08.678Z,53.80
2019-02-23T00:47:40.298Z,55.53
2019-02-23T00:48:11.700Z,55.83
2019-02-23T00:48:43.022Z,55.17
2019-02-23T00:49:14.567Z,57.80
2019-02-23T00:49:46.036Z,60.57
2019-02-23T00:50:17.625Z,59.53
2019-02-23T00:50:49.096Z,62.07
2019-02-23T00:51:20.698Z,60.43
2019-02-23T00:51:52.103Z,59.20
2019-02-23T00:52:23.532Z,61.13
2019-02-23T00:52:55.028Z,61.30
2019-02-23T00:53:26.544Z,60.37
2019-02-23T00:53:58.009Z,60.90
2019-02-23T00:54:29.495Z,58.70
2019-02-23T00:55:00.851Z,57.80
2019-02-23T00:55:32.433Z,54.03
2019-02-23T00:56:03.870Z,50.93
2019-02-23T00:56:35.200Z,48.53
2019-02-23T00:57:07.694Z,40.77
2019-02-23T00:57:39.097Z,38.87
2019-02-23T00:58:10.582Z,42.70
2019-02-23T00:58:42.052Z,42.33
2019-02-23T00:59:13.566Z,43.63
2019-02-23T00:59:45.109Z,47.70
2019-02-23T01:00:17.013Z,53.03
2019-02-23T01:00:48.636Z,56.83
2019-02-23T01:01:20.205Z,53.87
2019-02-23T01:01:51.566Z,50.23
2019-02-23T01:02:24.100Z,47.33
2019-02-23T01:02:55.653Z,43.53
2019-02-23T01:03:27.167Z,42.73
2019-02-23T01:03:58.743Z,40.33
2019-02-23T01:04:30.170Z,40.37
2019-02-23T01:05:01.471Z,41.80
2019-02-23T01:05:32.981Z,42.20
2019-02-23T01:06:04.413Z,46.37
2019-02-23T01:06:35.883Z,47.17
2019-02-23T01:07:07.418Z,45.43
2019-02-23T01:07:38.897Z,45.10
2019-02-23T01:08:10.308Z,43.97
2019-02-23T01:08:42.732Z,49.40
2019-02-23T01:09:14.172Z,42.70
2019-02-23T01:09:45.554Z,41.57
2019-02-23T01:10:19.365Z,41.47
2019-02-23T01:10:57.834Z,45.87
2019-02-23T01:11:23.242Z,53.90
2019-02-23T01:11:54.587Z,65.83
2019-02-23T01:12:25.894Z,70.67
2019-02-23T01:12:57.218Z,63.07
2019-02-23T01:13:28.749Z,58.73
2019-02-23T01:14:00.028Z,53.63
2019-02-23T01:14:31.356Z,51.80
2019-02-23T01:15:06.118Z,46.80
2019-02-23T01:15:37.413Z,46.83
2019-02-23T01:16:08.757Z,45.70
2019-02-23T01:16:40.164Z,46.07
2019-02-23T01:17:11.394Z,44.70
2019-02-23T01:17:42.771Z,44.40
2019-02-23T01:18:14.440Z,40.23
2019-02-23T01:18:46.757Z,41.17
2019-02-23T01:19:18.058Z,44.87
2019-02-23T01:19:49.458Z,44.07
2019-02-23T01:20:20.741Z,45.10
2019-02-23T01:20:52.153Z,44.00
2019-02-23T01:21:23.536Z,44.63
2019-02-23T01:21:54.815Z,47.20
2019-02-23T01:22:26.286Z,45.03
2019-02-23T01:22:57.677Z,43.93
2019-02-23T01:23:29.072Z,45.30
2019-02-23T01:24:00.468Z,45.10
2019-02-23T01:24:31.853Z,42.60
2019-02-23T01:25:04.364Z,39.00
2019-02-23T01:25:35.798Z,37.07
2019-02-23T01:26:07.120Z,29.03
2019-02-23T01:26:38.732Z,20.87
2019-02-23T01:27:10.150Z,20.40
2019-02-23T01:27:41.506Z,18.83
2019-02-23T01:28:12.895Z,19.90
2019-02-23T01:28:47.095Z,19.40
2019-02-23T01:29:18.580Z,17.43
2019-02-23T01:29:50.035Z,17.93
2019-02-23T01:30:21.424Z,16.53
2019-02-23T01:30:52.670Z,16.97
2019-02-23T01:31:24.235Z,16.77
2019-02-23T01:31:55.706Z,17.03
2019-02-23T01:32:28.078Z,17.30
2019-02-23T01:32:59.375Z,18.20
2019-02-23T01:33:30.685Z,17.27
2019-02-23T01:34:02.123Z,17.40
2019-02-23T01:34:33.521Z,17.83
2019-02-23T01:35:04.879Z,17.43
2019-02-23T01:35:36.379Z,18.50
2019-02-23T01:36:07.701Z,18.97
2019-02-23T01:36:39.181Z,18.33
2019-02-23T01:37:10.575Z,19.40
2019-02-23T01:37:41.979Z,20.33
2019-02-23T01:38:13.345Z,21.87
2019-02-23T01:38:44.812Z,21.20
2019-02-23T01:39:16.154Z,21.70
2019-02-23T01:39:47.671Z,20.90
2019-02-23T01:40:18.984Z,20.57
2019-02-23T01:40:50.329Z,21.23
2019-02-23T01:41:21.972Z,19.30
2019-02-23T01:41:53.384Z,19.53
2019-02-23T01:42:24.647Z,19.50
2019-02-23T01:42:56.019Z,17.90
2019-02-23T01:43:27.290Z,18.03
2019-02-23T01:44:00.533Z,16.43
2019-02-23T01:44:31.831Z,17.33
2019-02-23T01:45:05.467Z,16.00
2019-02-23T01:45:42.263Z,15.37
2019-02-23T01:46:10.059Z,15.03
2019-02-23T01:46:42.441Z,14.17
2019-02-23T01:47:13.841Z,14.63
2019-02-23T01:47:45.311Z,13.70
2019-02-23T01:48:16.763Z,13.60
2019-02-23T01:48:48.168Z,13.87
2019-02-23T01:49:19.529Z,14.03
2019-02-23T01:49:58.491Z,14.20
2019-02-23T01:50:24.386Z,15.03
2019-02-23T01:50:55.754Z,14.60
2019-02-23T01:51:27.088Z,13.63
2019-02-23T01:51:58.604Z,14.63
2019-02-23T01:52:30.016Z,14.30
2019-02-23T01:53:01.301Z,14.77
2019-02-23T01:53:32.728Z,15.03
2019-02-23T01:54:04.032Z,15.37
2019-02-23T01:54:35.304Z,18.17
2019-02-23T01:55:06.903Z,17.87
2019-02-23T01:55:38.199Z,18.57
2019-02-23T01:56:09.709Z,19.57
2019-02-23T01:56:41.111Z,18.20
2019-02-23T01:57:12.428Z,17.70
2019-02-23T01:57:43.955Z,17.20
2019-02-23T01:58:15.425Z,18.53
2019-02-23T01:58:46.775Z,18.73
2019-02-23T01:59:18.166Z,18.27
2019-02-23T01:59:49.507Z,18.47
2019-02-23T02:00:21.633Z,18.00
2019-02-23T02:00:52.981Z,17.10
2019-02-23T02:01:24.389Z,16.57
2019-02-23T02:01:57.343Z,16.70
2019-02-23T02:02:28.981Z,17.57
2019-02-23T02:03:00.379Z,17.10
2019-02-23T02:03:31.708Z,17.87
2019-02-23T02:04:03.082Z,17.20
2019-02-23T02:04:35.544Z,16.57
2019-02-23T02:05:07.384Z,15.33
2019-02-23T02:05:38.761Z,15.70
2019-02-23T02:06:10.243Z,14.63
2019-02-23T02:06:41.609Z,14.83
2019-02-23T02:07:13.040Z,14.70
2019-02-23T02:07:44.352Z,14.17
2019-02-23T02:08:15.715Z,14.17
2019-02-23T02:08:47.110Z,13.47
2019-02-23T02:09:18.416Z,14.40
2019-02-23T02:09:49.694Z,15.00
2019-02-23T02:10:21.048Z,15.13
2019-02-23T02:10:52.364Z,14.67
2019-02-23T02:11:23.757Z,15.03
2019-02-23T02:11:54.960Z,15.27
2019-02-23T02:12:26.352Z,15.40
2019-02-23T02:12:57.670Z,14.57
2019-02-23T02:13:28.970Z,14.77
2019-02-23T02:14:00.357Z,13.43
2019-02-23T02:14:31.598Z,13.00
2019-02-23T02:15:07.019Z,14.17
2019-02-23T02:15:38.687Z,14.70
2019-02-23T02:16:09.889Z,15.93
2019-02-23T02:16:41.109Z,16.13
2019-02-23T02:17:12.651Z,16.83
2019-02-23T02:17:43.901Z,16.93
2019-02-23T02:18:15.165Z,18.67
2019-02-23T02:18:46.683Z,16.57
2019-02-23T02:19:18.880Z,17.07
2019-02-23T02:19:50.093Z,18.17
2019-02-23T02:20:21.400Z,17.70
2019-02-23T02:20:52.718Z,16.23
2019-02-23T02:21:23.962Z,17.73
2019-02-23T02:21:55.210Z,18.00
2019-02-23T02:22:26.468Z,17.83
2019-02-23T02:22:57.687Z,18.47
2019-02-23T02:23:28.945Z,17.40
2019-02-23T02:24:00.360Z,19.27
2019-02-23T02:24:31.887Z,18.70
2019-02-23T02:25:05.093Z,17.27
2019-02-23T02:25:36.375Z,17.50
2019-02-23T02:26:07.693Z,17.70
2019-02-23T02:26:38.901Z,18.43
2019-02-23T02:27:10.195Z,18.60
2019-02-23T02:27:41.415Z,18.40
2019-02-23T02:28:12.658Z,17.93
2019-02-23T02:28:44.105Z,19.13
2019-02-23T02:29:15.419Z,19.20
2019-02-23T02:29:46.653Z,17.97
2019-02-23T02:30:17.939Z,17.93
2019-02-23T02:30:49.135Z,16.83
2019-02-23T02:31:20.436Z,18.37
2019-02-23T02:31:51.626Z,17.57
2019-02-23T02:32:22.897Z,18.60
2019-02-23T02:32:54.091Z,16.70
2019-02-23T02:33:25.502Z,17.47
2019-02-23T02:34:04.565Z,17.40
2019-02-23T02:34:35.892Z,17.30
2019-02-23T02:35:09.069Z,18.67
2019-02-23T02:35:40.542Z,19.60
2019-02-23T02:36:12.064Z,19.87
2019-02-23T02:36:43.780Z,18.90
2019-02-23T02:37:15.022Z,18.23
2019-02-23T02:37:46.280Z,18.00
2019-02-23T02:38:17.601Z,16.80
2019-02-23T02:38:48.849Z,17.10
2019-02-23T02:39:20.157Z,16.40
2019-02-23T02:39:51.490Z,16.47
2019-02-23T02:40:22.859Z,15.87
2019-02-23T02:40:54.216Z,16.07
2019-02-23T02:41:25.482Z,15.40
2019-02-23T02:41:56.762Z,20.43
2019-02-23T02:42:28.028Z,24.57
2019-02-23T02:42:59.403Z,24.37
2019-02-23T02:43:30.699Z,25.40
2019-02-23T02:44:02.098Z,24.80
2019-02-23T02:44:33.397Z,26.20
2019-02-23T02:45:08.448Z,30.23
2019-02-23T02:45:40.001Z,28.77
2019-02-23T02:46:11.266Z,29.13
2019-02-23T02:46:42.581Z,27.77
2019-02-23T02:47:14.113Z,28.40
2019-02-23T02:47:45.438Z,26.87
2019-02-23T02:48:16.801Z,27.33
2019-02-23T02:48:48.126Z,25.73
2019-02-23T02:49:19.530Z,24.47
2019-02-23T02:49:50.994Z,24.17
2019-02-23T02:50:24.468Z,24.43
2019-02-23T02:50:55.418Z,24.27
2019-02-23T02:51:26.784Z,23.77
2019-02-23T02:51:58.132Z,24.40
2019-02-23T02:52:29.493Z,24.13
2019-02-23T02:53:00.863Z,24.10
2019-02-23T02:53:32.282Z,23.33
2019-02-23T02:54:03.565Z,22.57
2019-02-23T02:54:34.846Z,22.33
2019-02-23T02:55:07.661Z,22.20
2019-02-23T02:55:38.959Z,22.10
2019-02-23T02:56:10.214Z,22.37
2019-02-23T02:56:41.571Z,22.60
2019-02-23T02:57:12.958Z,22.13
2019-02-23T02:57:44.404Z,21.67
2019-02-23T02:58:15.734Z,22.03
2019-02-23T02:58:47.075Z,20.97
2019-02-23T02:59:18.298Z,19.60
2019-02-23T02:59:49.574Z,21.00
2019-02-23T03:00:20.887Z,20.23
2019-02-23T03:00:52.069Z,19.60
2019-02-23T03:01:23.353Z,19.53
2019-02-23T03:01:54.570Z,20.13
2019-02-23T03:02:26.050Z,19.67
2019-02-23T03:02:57.349Z,20.03
2019-02-23T03:03:28.890Z,19.50
2019-02-23T03:04:00.196Z,17.33
2019-02-23T03:04:31.640Z,18.97
2019-02-23T03:05:04.179Z,18.10
2019-02-23T03:05:36.527Z,19.40
2019-02-23T03:06:07.747Z,21.23
2019-02-23T03:06:39.157Z,22.70
2019-02-23T03:07:11.441Z,22.37
2019-02-23T03:07:42.822Z,23.77
2019-02-23T03:08:14.146Z,26.40
2019-02-23T03:08:45.457Z,26.73
2019-02-23T03:09:17.153Z,28.67
2019-02-23T03:09:48.439Z,27.20
2019-02-23T03:10:19.781Z,27.20
2019-02-23T03:10:51.143Z,24.53
2019-02-23T03:11:22.408Z,24.80
2019-02-23T03:11:53.825Z,25.00
2019-02-23T03:12:25.075Z,25.80
2019-02-23T03:12:56.422Z,26.00
2019-02-23T03:13:27.726Z,24.00
2019-02-23T03:13:59.108Z,25.57
2019-02-23T03:14:30.482Z,24.30
2019-02-23T03:15:01.815Z,24.23
2019-02-23T03:15:34.171Z,27.00
2019-02-23T03:16:05.520Z,26.50
2019-02-23T03:16:36.951Z,27.83
2019-02-23T03:17:08.336Z,26.33
2019-02-23T03:17:39.628Z,26.93
2019-02-23T03:18:10.983Z,25.40
2019-02-23T03:18:42.242Z,23.10
2019-02-23T03:19:13.780Z,21.20
2019-02-23T03:19:45.119Z,21.50
2019-02-23T03:20:16.700Z,20.30
2019-02-23T03:20:47.948Z,19.33
2019-02-23T03:21:19.237Z,20.83
2019-02-23T03:21:50.495Z,22.47
2019-02-23T03:22:21.813Z,21.03
2019-02-23T03:22:53.187Z,20.67
2019-02-23T03:23:24.461Z,19.47
2019-02-23T03:23:55.657Z,20.83
2019-02-23T03:24:26.999Z,19.50
2019-02-23T03:24:58.222Z,20.10
2019-02-23T03:25:29.605Z,19.97
2019-02-23T03:26:00.865Z,23.20
2019-02-23T03:26:32.090Z,24.10
2019-02-23T03:27:03.334Z,31.53
2019-02-23T03:27:34.623Z,32.23
2019-02-23T03:28:05.896Z,29.17
2019-02-23T03:28:37.212Z,30.53
2019-02-23T03:29:08.418Z,31.23
2019-02-23T03:29:39.684Z,31.57
2019-02-23T03:30:10.957Z,31.50
2019-02-23T03:30:42.437Z,32.10
2019-02-23T03:31:13.705Z,30.93
2019-02-23T03:31:45.065Z,31.73
2019-02-23T03:32:16.348Z,33.47
2019-02-23T03:32:47.696Z,34.10
2019-02-23T03:33:19.006Z,31.87
2019-02-23T03:33:50.409Z,32.93
2019-02-23T03:34:21.720Z,33.43
2019-02-23T03:34:53.015Z,35.33
2019-02-23T03:35:24.231Z,33.33
2019-02-23T03:35:55.559Z,34.90
2019-02-23T03:36:26.965Z,32.57
2019-02-23T03:36:58.390Z,31.77
2019-02-23T03:37:29.665Z,33.40
2019-02-23T03:38:01.041Z,29.73
2019-02-23T03:38:32.351Z,28.70
2019-02-23T03:39:04.109Z,27.73
2019-02-23T03:39:36.896Z,28.20
2019-02-23T03:40:08.376Z,27.57
2019-02-23T03:40:39.676Z,28.60
2019-02-23T03:41:11.012Z,26.33
2019-02-23T03:41:42.432Z,26.17
2019-02-23T03:42:14.115Z,26.97
2019-02-23T03:42:45.481Z,25.67
2019-02-23T03:43:16.801Z,21.83
2019-02-23T03:43:48.148Z,23.73
2019-02-23T03:44:19.384Z,23.47
2019-02-23T03:44:50.688Z,22.80
2019-02-23T03:45:21.926Z,22.33
2019-02-23T03:45:53.274Z,23.47
2019-02-23T03:46:24.523Z,22.33
2019-02-23T03:46:55.905Z,22.57
2019-02-23T03:47:27.105Z,23.00
2019-02-23T03:47:58.435Z,21.40
2019-02-23T03:48:29.695Z,23.43
2019-02-23T03:49:01.059Z,26.97
2019-02-23T03:49:32.350Z,28.00
2019-02-23T03:50:05.838Z,27.93
2019-02-23T03:50:48.470Z,28.73
2019-02-23T03:51:10.371Z,31.40
2019-02-23T03:51:41.598Z,32.27
2019-02-23T03:52:12.889Z,32.77
2019-02-23T03:52:44.317Z,31.97
2019-02-23T03:53:15.674Z,33.10
2019-02-23T03:53:47.103Z,34.20
2019-02-23T03:54:18.455Z,35.13
2019-02-23T03:54:49.764Z,34.83
2019-02-23T03:55:21.142Z,35.00
2019-02-23T03:55:52.518Z,35.03
2019-02-23T03:56:23.833Z,35.27
2019-02-23T03:56:55.059Z,34.47
2019-02-23T03:57:26.408Z,35.57
2019-02-23T03:57:57.821Z,34.17
2019-02-23T03:58:29.212Z,33.37
2019-02-23T03:59:00.551Z,31.73
2019-02-23T03:59:31.820Z,31.60
2019-02-23T04:00:06.225Z,27.70
2019-02-23T04:00:37.730Z,29.80
2019-02-23T04:01:09.085Z,29.27
2019-02-23T04:01:40.405Z,26.97
2019-02-23T04:02:11.833Z,26.43
2019-02-23T04:02:44.413Z,24.87
2019-02-23T04:03:15.822Z,25.80
2019-02-23T04:03:47.360Z,25.83
2019-02-23T04:04:19.745Z,25.77
2019-02-23T04:04:51.086Z,27.40
2019-02-23T04:05:22.325Z,28.37
2019-02-23T04:05:53.694Z,29.03
2019-02-23T04:06:25.127Z,28.50
2019-02-23T04:06:56.650Z,29.10
2019-02-23T04:07:27.871Z,29.17
2019-02-23T04:07:59.159Z,31.87
2019-02-23T04:08:30.552Z,29.93
2019-02-23T04:09:02.875Z,31.00
2019-02-23T04:09:36.213Z,31.43
2019-02-23T04:10:07.507Z,31.73
2019-02-23T04:10:38.970Z,33.13
2019-02-23T04:11:10.348Z,33.27
2019-02-23T04:11:41.732Z,34.20
2019-02-23T04:12:13.203Z,31.83
2019-02-23T04:12:44.651Z,34.13
2019-02-23T04:13:16.035Z,34.10
2019-02-23T04:13:47.265Z,32.70
2019-02-23T04:14:18.587Z,30.83
2019-02-23T04:14:49.920Z,31.40
2019-02-23T04:15:21.177Z,31.23
2019-02-23T04:15:52.462Z,30.63
2019-02-23T04:16:23.792Z,28.20
2019-02-23T04:16:55.159Z,29.47
2019-02-23T04:17:26.557Z,29.20
2019-02-23T04:17:57.919Z,27.37
2019-02-23T04:18:29.195Z,27.17
2019-02-23T04:19:00.545Z,27.93
2019-02-23T04:19:32.002Z,28.43
2019-02-23T04:20:06.004Z,28.53
2019-02-23T04:20:37.365Z,28.90
2019-02-23T04:21:08.819Z,26.60
2019-02-23T04:21:40.052Z,27.97
2019-02-23T04:22:11.424Z,26.20
2019-02-23T04:22:42.719Z,28.63
2019-02-23T04:23:14.201Z,28.93
2019-02-23T04:23:46.721Z,29.93
2019-02-23T04:24:18.189Z,30.10
2019-02-23T04:24:49.620Z,30.83
2019-02-23T04:25:20.970Z,30.67
2019-02-23T04:25:52.396Z,29.40
2019-02-23T04:26:23.838Z,28.27
2019-02-23T04:26:55.099Z,30.07
2019-02-23T04:27:26.373Z,29.17
2019-02-23T04:27:57.830Z,29.17
2019-02-23T04:28:29.159Z,29.53
2019-02-23T04:29:00.460Z,28.93
2019-02-23T04:29:31.781Z,29.37
2019-02-23T04:30:05.307Z,28.40
2019-02-23T04:30:36.729Z,27.37
2019-02-23T04:31:08.069Z,29.13
2019-02-23T04:31:39.381Z,29.43
2019-02-23T04:32:10.609Z,27.93
2019-02-23T04:32:42.056Z,30.57
2019-02-23T04:33:13.631Z,30.17
2019-02-23T04:33:45.054Z,30.57
2019-02-23T04:34:16.490Z,30.57
2019-02-23T04:34:47.887Z,30.60
2019-02-23T04:35:19.243Z,28.13
2019-02-23T04:35:50.598Z,27.43
2019-02-23T04:36:21.952Z,29.17
2019-02-23T04:36:53.332Z,29.43
2019-02-23T04:37:24.600Z,28.30
2019-02-23T04:37:56.069Z,29.43
2019-02-23T04:38:27.478Z,30.80
2019-02-23T04:38:58.806Z,30.47
2019-02-23T04:39:30.100Z,29.37
2019-02-23T04:40:01.426Z,27.63
2019-02-23T04:40:33.783Z,27.70
2019-02-23T04:41:05.085Z,27.17
2019-02-23T04:41:36.429Z,27.70
2019-02-23T04:42:07.737Z,26.03
2019-02-23T04:42:39.119Z,25.93
2019-02-23T04:43:10.491Z,28.03
2019-02-23T04:43:43.992Z,27.57
2019-02-23T04:44:14.840Z,27.80
2019-02-23T04:44:46.160Z,27.50
2019-02-23T04:45:17.649Z,27.30
2019-02-23T04:45:48.949Z,27.53
2019-02-23T04:46:20.402Z,26.10
2019-02-23T04:46:51.785Z,26.30
2019-02-23T04:47:23.121Z,27.07
2019-02-23T04:47:54.497Z,28.13
2019-02-23T04:48:26.021Z,30.20
2019-02-23T04:48:57.344Z,31.57
2019-02-23T04:49:28.645Z,28.83
2019-02-23T04:49:59.918Z,27.70
2019-02-23T04:50:31.461Z,25.97
2019-02-23T04:51:13.793Z,25.30
2019-02-23T04:51:36.995Z,25.50
2019-02-23T04:52:08.342Z,26.90
2019-02-23T04:52:39.955Z,27.77
2019-02-23T04:53:11.240Z,28.30
2019-02-23T04:53:42.666Z,27.77
2019-02-23T04:54:14.228Z,27.97
2019-02-23T04:54:45.527Z,27.53
2019-02-23T04:55:17.127Z,27.03
2019-02-23T04:55:48.472Z,29.97
2019-02-23T04:56:19.739Z,31.00
2019-02-23T04:56:51.139Z,31.87
2019-02-23T04:57:22.429Z,35.53
2019-02-23T04:57:53.783Z,36.73
2019-02-23T04:58:25.193Z,39.13
2019-02-23T04:58:56.523Z,42.40
2019-02-23T04:59:27.805Z,39.70
2019-02-23T04:59:59.175Z,40.67
2019-02-23T05:00:30.551Z,40.33
2019-02-23T05:01:01.824Z,39.57
2019-02-23T05:01:33.263Z,39.97
2019-02-23T05:02:04.611Z,41.13
2019-02-23T05:02:35.933Z,40.47
2019-02-23T05:03:07.384Z,40.13
2019-02-23T05:03:38.931Z,44.30
2019-02-23T05:04:10.315Z,41.93
2019-02-23T05:04:41.635Z,40.43
2019-02-23T05:05:13.012Z,40.20
2019-02-23T05:05:44.412Z,41.83
2019-02-23T05:06:15.816Z,43.60
2019-02-23T05:06:47.201Z,44.30
2019-02-23T05:07:18.478Z,43.47
2019-02-23T05:07:49.736Z,43.53
2019-02-23T05:08:21.008Z,42.97
2019-02-23T05:08:52.352Z,43.43
2019-02-23T05:09:23.656Z,44.07
2019-02-23T05:09:54.964Z,42.93
2019-02-23T05:10:26.386Z,40.93
2019-02-23T05:10:57.727Z,43.07
2019-02-23T05:11:29.186Z,41.43
2019-02-23T05:12:00.513Z,42.90
2019-02-23T05:12:31.850Z,44.27
2019-02-23T05:13:03.225Z,40.30
2019-02-23T05:13:34.641Z,36.20
2019-02-23T05:14:05.941Z,31.07
2019-02-23T05:14:37.260Z,33.80
2019-02-23T05:15:09.269Z,30.43
2019-02-23T05:15:40.583Z,34.40
2019-02-23T05:16:11.852Z,34.33
2019-02-23T05:16:43.569Z,31.50
2019-02-23T05:17:14.875Z,32.77
2019-02-23T05:17:46.536Z,34.53
2019-02-23T05:18:17.831Z,36.97
2019-02-23T05:18:49.189Z,37.33
2019-02-23T05:19:20.501Z,37.87
2019-02-23T05:19:51.947Z,37.07
2019-02-23T05:20:23.278Z,39.37
2019-02-23T05:20:54.702Z,41.57
2019-02-23T05:21:27.011Z,40.60
2019-02-23T05:21:58.576Z,41.50
2019-02-23T05:22:29.834Z,40.97
2019-02-23T05:23:01.231Z,41.30
2019-02-23T05:23:32.582Z,39.03
2019-02-23T05:24:03.978Z,37.60
2019-02-23T05:24:35.241Z,40.17
2019-02-23T05:25:06.601Z,39.57
2019-02-23T05:25:37.889Z,39.83
2019-02-23T05:26:09.384Z,43.23
2019-02-23T05:26:40.725Z,49.73
2019-02-23T05:27:12.112Z,49.80
2019-02-23T05:27:43.350Z,50.53
2019-02-23T05:28:14.740Z,50.20
2019-02-23T05:28:46.157Z,50.57
2019-02-23T05:29:17.502Z,50.17
2019-02-23T05:29:48.768Z,48.17
2019-02-23T05:30:20.019Z,47.70
2019-02-23T05:30:51.405Z,48.57
2019-02-23T05:31:22.723Z,47.87
2019-02-23T05:31:54.027Z,48.67
2019-02-23T05:32:25.325Z,48.97
2019-02-23T05:32:56.719Z,49.03
2019-02-23T05:33:28.107Z,47.33
2019-02-23T05:33:59.552Z,49.17
2019-02-23T05:34:30.867Z,47.80
2019-02-23T05:35:02.416Z,48.80
2019-02-23T05:35:33.848Z,52.47
2019-02-23T05:36:05.129Z,60.23
2019-02-23T05:36:36.436Z,85.17
2019-02-23T05:37:08.887Z,74.17
2019-02-23T05:37:40.227Z,77.90
2019-02-23T05:38:11.572Z,126.53
2019-02-23T05:38:42.826Z,198.50
2019-02-23T05:39:14.275Z,220.37
2019-02-23T05:39:45.636Z,255.13
2019-02-23T05:40:17.245Z,271.47
2019-02-23T05:40:48.646Z,316.80
2019-02-23T05:41:19.969Z,319.00
2019-02-23T05:41:51.368Z,321.73
2019-02-23T05:42:22.749Z,317.93
2019-02-23T05:43:00.970Z,319.60
2019-02-23T05:43:27.271Z,328.00
2019-02-23T05:43:58.550Z,319.23
2019-02-23T05:44:29.885Z,323.00
2019-02-23T05:45:01.222Z,309.37
2019-02-23T05:45:33.530Z,302.43
2019-02-23T05:46:04.921Z,300.93
2019-02-23T05:46:36.164Z,292.97
2019-02-23T05:47:07.510Z,229.80
2019-02-23T05:47:38.829Z,175.97
2019-02-23T05:48:10.229Z,161.97
2019-02-23T05:48:41.420Z,120.33
2019-02-23T05:49:12.682Z,131.60
2019-02-23T05:49:44.174Z,102.00
2019-02-23T05:50:15.425Z,77.10
2019-02-23T05:50:46.737Z,59.83
2019-02-23T05:51:18.025Z,57.70
2019-02-23T05:51:49.464Z,53.93
2019-02-23T05:52:21.694Z,45.73
2019-02-23T05:52:53.001Z,47.37
2019-02-23T05:53:24.351Z,33.57
2019-02-23T05:53:55.651Z,32.37
2019-02-23T05:54:26.978Z,32.30
2019-02-23T05:54:58.240Z,32.17
2019-02-23T05:55:29.613Z,34.20
2019-02-23T05:56:00.797Z,31.47
2019-02-23T05:56:32.100Z,32.03
2019-02-23T05:57:03.317Z,32.47
2019-02-23T05:57:34.635Z,39.93
2019-02-23T05:58:05.833Z,47.57
2019-02-23T05:58:37.151Z,48.67
2019-02-23T05:59:08.532Z,51.07
2019-02-23T05:59:40.807Z,53.67
2019-02-23T06:00:12.895Z,69.43
2019-02-23T06:00:44.439Z,68.73
2019-02-23T06:01:15.781Z,70.47
2019-02-23T06:01:47.180Z,60.23
2019-02-23T06:02:18.457Z,55.30
2019-02-23T06:02:49.774Z,45.80
2019-02-23T06:03:21.041Z,42.33
2019-02-23T06:03:52.300Z,38.53
2019-02-23T06:04:23.562Z,35.70
2019-02-23T06:04:54.850Z,34.17
2019-02-23T06:05:26.072Z,32.80
2019-02-23T06:05:57.306Z,32.83
2019-02-23T06:06:28.528Z,29.33
2019-02-23T06:06:59.886Z,30.30
2019-02-23T06:07:31.155Z,30.03
2019-02-23T06:08:02.375Z,31.37
2019-02-23T06:08:33.650Z,29.67
2019-02-23T06:09:04.999Z,29.93
2019-02-23T06:09:36.371Z,32.03
2019-02-23T06:10:08.704Z,32.07
2019-02-23T06:10:39.994Z,34.90
2019-02-23T06:11:11.325Z,37.40
2019-02-23T06:11:42.762Z,40.50
2019-02-23T06:12:14.527Z,43.87
2019-02-23T06:12:46.067Z,55.53
2019-02-23T06:13:17.423Z,64.10
2019-02-23T06:13:48.746Z,71.93
2019-02-23T06:14:20.315Z,75.10
2019-02-23T06:14:51.752Z,78.23
2019-02-23T06:15:23.252Z,78.93
2019-02-23T06:15:54.510Z,80.73
2019-02-23T06:16:25.897Z,86.83
2019-02-23T06:16:57.274Z,89.00
2019-02-23T06:17:28.845Z,89.67
2019-02-23T06:18:00.096Z,90.80
2019-02-23T06:18:31.424Z,91.13
2019-02-23T06:19:02.719Z,92.20
2019-02-23T06:19:34.063Z,85.33
2019-02-23T06:20:07.351Z,84.03
2019-02-23T06:20:38.737Z,83.27
2019-02-23T06:21:09.969Z,82.47
2019-02-23T06:21:52.863Z,84.13
2019-02-23T06:22:14.458Z,82.27
2019-02-23T06:22:46.929Z,83.90
2019-02-23T06:23:18.350Z,83.27
2019-02-23T06:23:49.774Z,83.40
2019-02-23T06:24:21.128Z,77.57
2019-02-23T06:24:52.477Z,75.40
2019-02-23T06:25:23.705Z,74.67
2019-02-23T06:25:55.006Z,71.73
2019-02-23T06:26:26.299Z,88.53
2019-02-23T06:26:57.607Z,89.23
2019-02-23T06:27:29.279Z,99.90
2019-02-23T06:28:00.707Z,93.77
2019-02-23T06:28:32.280Z,95.87
2019-02-23T06:29:03.713Z,83.50
2019-02-23T06:29:35.104Z,78.20
2019-02-23T06:30:10.358Z,79.10
2019-02-23T06:30:41.832Z,77.87
2019-02-23T06:31:13.093Z,84.03
2019-02-23T06:31:44.557Z,86.93
2019-02-23T06:32:15.940Z,88.13
2019-02-23T06:32:47.379Z,99.23
2019-02-23T06:33:18.616Z,104.67
2019-02-23T06:33:49.997Z,108.40
2019-02-23T06:34:21.220Z,102.50
2019-02-23T06:34:52.637Z,105.87
2019-02-23T06:35:24.001Z,111.47
2019-02-23T06:35:55.491Z,116.37
2019-02-23T06:36:26.715Z,116.97
2019-02-23T06:36:58.121Z,112.00
2019-02-23T06:37:29.499Z,120.57
2019-02-23T06:38:00.987Z,118.77
2019-02-23T06:38:32.206Z,112.27
2019-02-23T06:39:04.197Z,112.43
2019-02-23T06:39:35.810Z,113.83
2019-02-23T06:40:09.267Z,117.37
2019-02-23T06:40:40.719Z,108.57
2019-02-23T06:41:12.104Z,112.30
2019-02-23T06:41:43.812Z,111.90
2019-02-23T06:42:15.376Z,111.53
2019-02-23T06:42:46.698Z,111.00
2019-02-23T06:43:18.128Z,100.23
2019-02-23T06:43:49.495Z,96.43
2019-02-23T06:44:20.862Z,92.67
2019-02-23T06:44:52.124Z,95.63
2019-02-23T06:45:24.528Z,93.37